sensor_id;sensor_type;location;lat;lon;timestamp;pressure;altitude;pressure_sealevel;temperature;humidity
7614;BME280;3848;42.016;23.098;2023-03-14T00:02:18;97412.59;;;3.43;100.00
7614;BME280;3848;42.016;23.098;2023-03-14T00:04:45;97434.72;;;3.56;100.00
7614;BME280;3848;42.016;23.098;2023-03-14T00:07:14;97411.75;;;3.42;100.00
7614;BME280;3848;42.016;23.098;2023-03-14T00:09:41;97431.34;;;3.55;100.00
7614;BME280;3848;42.016;23.098;2023-03-14T00:12:08;97431.34;;;3.55;100.00
7614;BME280;3848;42.016;23.098;2023-03-14T00:14:35;97429.47;;;3.48;100.00
7614;BME280;3848;42.016;23.098;2023-03-14T00:17:02;97423.56;;;3.46;100.00
7614;BME280;3848;42.016;23.098;2023-03-14T00:19:28;97423.50;;;3.43;100.00
7614;BME280;3848;42.016;23.098;2023-03-14T00:21:55;97418.41;;;3.40;100.00
7614;BME280;3848;42.016;23.098;2023-03-14T00:24:23;97417.50;;;3.36;100.00
7614;BME280;3848;42.016;23.098;2023-03-14T00:26:50;97416.47;;;3.30;100.00
7614;BME280;3848;42.016;23.098;2023-03-14T00:29:17;97409.78;;;3.30;100.00
7614;BME280;3848;42.016;23.098;2023-03-14T00:31:44;97400.47;;;3.26;100.00
7614;BME280;3848;42.016;23.098;2023-03-14T00:34:10;97404.69;;;3.27;100.00
7614;BME280;3848;42.016;23.098;2023-03-14T00:36:37;97396.38;;;3.30;100.00
7614;BME280;3848;42.016;23.098;2023-03-14T00:39:04;97405.63;;;3.32;100.00
7614;BME280;3848;42.016;23.098;2023-03-14T00:41:32;97394.47;;;3.20;100.00
7614;BME280;3848;42.016;23.098;2023-03-14T00:43:59;97381.69;;;3.12;100.00
7614;BME280;3848;42.016;23.098;2023-03-14T00:46:26;97382.44;;;3.08;100.00
7614;BME280;3848;42.016;23.098;2023-03-14T00:48:52;97378.88;;;2.98;100.00
7614;BME280;3848;42.016;23.098;2023-03-14T00:51:19;97377.81;;;2.90;100.00
7614;BME280;3848;42.016;23.098;2023-03-14T00:53:46;97387.50;;;2.77;100.00
7614;BME280;3848;42.016;23.098;2023-03-14T00:56:13;97373.78;;;2.64;100.00
7614;BME280;3848;42.016;23.098;2023-03-14T00:58:41;97371.22;;;2.62;100.00
7614;BME280;3848;42.016;23.098;2023-03-14T01:01:10;97367.25;;;2.70;100.00
7614;BME280;3848;42.016;23.098;2023-03-14T01:03:37;97374.78;;;2.70;100.00
7614;BME280;3848;42.016;23.098;2023-03-14T01:06:12;97369.06;;;2.74;100.00
7614;BME280;3848;42.016;23.098;2023-03-14T01:08:39;97358.22;;;2.75;100.00
7614;BME280;3848;42.016;23.098;2023-03-14T01:11:07;97364.19;;;2.81;100.00
7614;BME280;3848;42.016;23.098;2023-03-14T01:13:34;97346.25;;;2.67;100.00
7614;BME280;3848;42.016;23.098;2023-03-14T01:16:06;97338.69;;;2.65;100.00
7614;BME280;3848;42.016;23.098;2023-03-14T01:18:34;97355.78;;;2.79;100.00
7614;BME280;3848;42.016;23.098;2023-03-14T01:21:02;97352.38;;;2.77;100.00
7614;BME280;3848;42.016;23.098;2023-03-14T01:23:29;97349.91;;;2.78;100.00
7614;BME280;3848;42.016;23.098;2023-03-14T01:25:55;97360.13;;;2.86;100.00
7614;BME280;3848;42.016;23.098;2023-03-14T01:28:22;97360.16;;;2.87;100.00
7614;BME280;3848;42.016;23.098;2023-03-14T01:30:49;97361.78;;;2.85;100.00
7614;BME280;3848;42.016;23.098;2023-03-14T01:33:17;97365.97;;;2.85;100.00
7614;BME280;3848;42.016;23.098;2023-03-14T01:35:44;97366.00;;;2.86;100.00
7614;BME280;3848;42.016;23.098;2023-03-14T01:38:11;97322.50;;;2.53;100.00
7614;BME280;3848;42.016;23.098;2023-03-14T01:40:42;97344.53;;;2.64;100.00
7614;BME280;3848;42.016;23.098;2023-03-14T01:43:15;97354.66;;;2.69;100.00
7614;BME280;3848;42.016;23.098;2023-03-14T01:48:51;97340.34;;;2.65;100.00
7614;BME280;3848;42.016;23.098;2023-03-14T01:51:22;97325.88;;;2.55;100.00
7614;BME280;3848;42.016;23.098;2023-03-14T01:53:53;97333.56;;;2.61;100.00
7614;BME280;3848;42.016;23.098;2023-03-14T01:56:23;97302.84;;;2.36;100.00
7614;BME280;3848;42.016;23.098;2023-03-14T01:58:51;97320.50;;;2.41;100.00
7614;BME280;3848;42.016;23.098;2023-03-14T02:01:20;97336.47;;;2.44;100.00
7614;BME280;3848;42.016;23.098;2023-03-14T02:03:52;97332.19;;;2.40;100.00
7614;BME280;3848;42.016;23.098;2023-03-14T02:06:23;97336.22;;;2.35;100.00
7614;BME280;3848;42.016;23.098;2023-03-14T02:08:51;97331.94;;;2.31;100.00
7614;BME280;3848;42.016;23.098;2023-03-14T02:11:18;97334.50;;;2.33;100.00
7614;BME280;3848;42.016;23.098;2023-03-14T02:13:45;97341.09;;;2.29;100.00
7614;BME280;3848;42.016;23.098;2023-03-14T02:16:12;97329.13;;;2.21;100.00
7614;BME280;3848;42.016;23.098;2023-03-14T02:18:39;97348.63;;;2.29;100.00
7614;BME280;3848;42.016;23.098;2023-03-14T02:21:14;97331.75;;;2.25;100.00
7614;BME280;3848;42.016;23.098;2023-03-14T02:23:50;97325.50;;;2.09;100.00
7614;BME280;3848;42.016;23.098;2023-03-14T02:26:23;97332.38;;;2.17;100.00
7614;BME280;3848;42.016;23.098;2023-03-14T02:28:55;97339.19;;;2.22;100.00
7614;BME280;3848;42.016;23.098;2023-03-14T02:31:22;97338.31;;;2.20;100.00
7614;BME280;3848;42.016;23.098;2023-03-14T02:33:49;97337.97;;;2.08;100.00
7614;BME280;3848;42.016;23.098;2023-03-14T02:36:35;97335.09;;;1.94;100.00
7614;BME280;3848;42.016;23.098;2023-03-14T02:39:08;97318.59;;;1.72;100.00
7614;BME280;3848;42.016;23.098;2023-03-14T02:41:38;97318.34;;;1.65;100.00
7614;BME280;3848;42.016;23.098;2023-03-14T02:44:06;97321.44;;;1.56;100.00
7614;BME280;3848;42.016;23.098;2023-03-14T02:46:33;97319.47;;;1.46;100.00
7614;BME280;3848;42.016;23.098;2023-03-14T02:49:02;97317.66;;;1.42;100.00
7614;BME280;3848;42.016;23.098;2023-03-14T02:51:30;97312.47;;;1.36;100.00
7614;BME280;3848;42.016;23.098;2023-03-14T02:53:57;97311.47;;;1.31;100.00
7614;BME280;3848;42.016;23.098;2023-03-14T02:56:23;97306.47;;;1.31;100.00
7614;BME280;3848;42.016;23.098;2023-03-14T02:58:50;97307.41;;;1.34;100.00
7614;BME280;3848;42.016;23.098;2023-03-14T03:01:18;97313.41;;;1.39;100.00
7614;BME280;3848;42.016;23.098;2023-03-14T03:03:45;97315.94;;;1.41;100.00
7614;BME280;3848;42.016;23.098;2023-03-14T03:06:12;97318.84;;;1.53;100.00
7614;BME280;3848;42.016;23.098;2023-03-14T03:08:38;97326.34;;;1.53;100.00
7614;BME280;3848;42.016;23.098;2023-03-14T03:11:05;97326.44;;;1.56;100.00
7614;BME280;3848;42.016;23.098;2023-03-14T03:13:32;97331.63;;;1.62;100.00
7614;BME280;3848;42.016;23.098;2023-03-14T03:15:59;97326.81;;;1.68;100.00
7614;BME280;3848;42.016;23.098;2023-03-14T03:18:27;97326.91;;;1.71;100.00
7614;BME280;3848;42.016;23.098;2023-03-14T03:20:54;97329.31;;;1.68;100.00
7614;BME280;3848;42.016;23.098;2023-03-14T03:23:21;97321.50;;;1.59;100.00
7614;BME280;3848;42.016;23.098;2023-03-14T03:25:49;97331.81;;;1.68;100.00
7614;BME280;3848;42.016;23.098;2023-03-14T03:28:16;97333.59;;;1.72;100.00
7614;BME280;3848;42.016;23.098;2023-03-14T03:30:43;97325.19;;;1.70;100.00
7614;BME280;3848;42.016;23.098;2023-03-14T03:33:11;97331.28;;;1.78;100.00
7614;BME280;3848;42.016;23.098;2023-03-14T03:35:44;97345.50;;;1.79;100.00
7614;BME280;3848;42.016;23.098;2023-03-14T03:38:11;97332.25;;;1.83;100.00
7614;BME280;3848;42.016;23.098;2023-03-14T03:40:38;97334.06;;;1.88;100.00
7614;BME280;3848;42.016;23.098;2023-03-14T03:43:05;97335.75;;;1.89;100.00
7614;BME280;3848;42.016;23.098;2023-03-14T03:45:32;97318.78;;;1.80;100.00
7614;BME280;3848;42.016;23.098;2023-03-14T03:47:58;97339.13;;;1.89;100.00
7614;BME280;3848;42.016;23.098;2023-03-14T03:50:25;97345.66;;;1.86;100.00
7614;BME280;3848;42.016;23.098;2023-03-14T03:52:53;97323.47;;;1.68;100.00
7614;BME280;3848;42.016;23.098;2023-03-14T03:55:20;97343.78;;;1.78;100.00
7614;BME280;3848;42.016;23.098;2023-03-14T03:57:47;97340.22;;;1.70;100.00
7614;BME280;3848;42.016;23.098;2023-03-14T04:00:14;97341.81;;;1.67;100.00
7614;BME280;3848;42.016;23.098;2023-03-14T04:02:40;97347.53;;;1.64;100.00
7614;BME280;3848;42.016;23.098;2023-03-14T04:05:08;97356.66;;;1.62;100.00
7614;BME280;3848;42.016;23.098;2023-03-14T04:07:35;97351.88;;;1.68;100.00
7614;BME280;3848;42.016;23.098;2023-03-14T04:10:03;97347.50;;;1.63;100.00
7614;BME280;3848;42.016;23.098;2023-03-14T04:12:30;97360.25;;;1.70;100.00
7614;BME280;3848;42.016;23.098;2023-03-14T04:14:57;97362.72;;;1.69;100.00
7614;BME280;3848;42.016;23.098;2023-03-14T04:17:24;97364.38;;;1.68;100.00
7614;BME280;3848;42.016;23.098;2023-03-14T04:19:50;97364.63;;;1.49;100.00
7614;BME280;3848;42.016;23.098;2023-03-14T04:22:19;97362.53;;;1.36;100.00
7614;BME280;3848;42.016;23.098;2023-03-14T04:24:45;97355.66;;;1.29;100.00
7614;BME280;3848;42.016;23.098;2023-03-14T04:27:14;97351.84;;;1.14;100.00
7614;BME280;3848;42.016;23.098;2023-03-14T04:29:41;97351.59;;;1.07;100.00
7614;BME280;3848;42.016;23.098;2023-03-14T04:32:07;97352.13;;;0.98;100.00
7614;BME280;3848;42.016;23.098;2023-03-14T04:34:34;97356.94;;;0.92;100.00
7614;BME280;3848;42.016;23.098;2023-03-14T04:37:01;97351.72;;;0.84;100.00
7614;BME280;3848;42.016;23.098;2023-03-14T04:39:28;97356.44;;;0.77;100.00
7614;BME280;3848;42.016;23.098;2023-03-14T04:41:55;97357.03;;;0.70;100.00
7614;BME280;3848;42.016;23.098;2023-03-14T04:44:23;97344.25;;;0.62;100.00
7614;BME280;3848;42.016;23.098;2023-03-14T04:46:50;97349.00;;;0.54;100.00
7614;BME280;3848;42.016;23.098;2023-03-14T04:49:16;97350.56;;;0.51;100.00
7614;BME280;3848;42.016;23.098;2023-03-14T04:51:43;97350.59;;;0.52;100.00
7614;BME280;3848;42.016;23.098;2023-03-14T04:54:10;97344.00;;;0.54;100.00
7614;BME280;3848;42.016;23.098;2023-03-14T04:56:37;97346.50;;;0.54;100.00
7614;BME280;3848;42.016;23.098;2023-03-14T04:59:04;97343.31;;;0.58;100.00
7614;BME280;3848;42.016;23.098;2023-03-14T05:01:32;97340.25;;;0.66;100.00
7614;BME280;3848;42.016;23.098;2023-03-14T05:03:59;97312.47;;;0.58;100.00
7614;BME280;3848;42.016;23.098;2023-03-14T05:06:26;97332.13;;;0.73;100.00
7614;BME280;3848;42.016;23.098;2023-03-14T05:08:53;97341.56;;;0.81;100.00
7614;BME280;3848;42.016;23.098;2023-03-14T05:11:19;97342.50;;;0.83;100.00
7614;BME280;3848;42.016;23.098;2023-03-14T05:13:46;97335.72;;;0.81;100.00
7614;BME280;3848;42.016;23.098;2023-03-14T05:16:13;97335.94;;;0.87;100.00
7614;BME280;3848;42.016;23.098;2023-03-14T05:18:41;97335.28;;;0.93;100.00
7614;BME280;3848;42.016;23.098;2023-03-14T05:21:07;97332.88;;;0.96;100.00
7614;BME280;3848;42.016;23.098;2023-03-14T05:23:34;97331.13;;;0.93;100.00
7614;BME280;3848;42.016;23.098;2023-03-14T05:26:01;97309.78;;;0.77;100.00
7614;BME280;3848;42.016;23.098;2023-03-14T05:28:28;97324.81;;;0.79;100.00
7614;BME280;3848;42.016;23.098;2023-03-14T05:30:54;97319.91;;;0.82;100.00
7614;BME280;3848;42.016;23.098;2023-03-14T05:33:21;97308.78;;;0.72;100.00
7614;BME280;3848;42.016;23.098;2023-03-14T05:35:49;97309.78;;;0.77;100.00
7614;BME280;3848;42.016;23.098;2023-03-14T05:38:16;97306.63;;;0.83;100.00
7614;BME280;3848;42.016;23.098;2023-03-14T05:40:44;97306.47;;;0.78;100.00
7614;BME280;3848;42.016;23.098;2023-03-14T05:43:11;97311.75;;;0.86;100.00
7614;BME280;3848;42.016;23.098;2023-03-14T05:45:38;97306.84;;;0.89;100.00
7614;BME280;3848;42.016;23.098;2023-03-14T05:48:05;97305.41;;;0.97;100.00
7614;BME280;3848;42.016;23.098;2023-03-14T05:50:32;97297.16;;;1.00;100.00
7614;BME280;3848;42.016;23.098;2023-03-14T05:53:00;97295.41;;;0.97;100.00
7614;BME280;3848;42.016;23.098;2023-03-14T05:55:27;97288.94;;;1.04;100.00
7614;BME280;3848;42.016;23.098;2023-03-14T05:57:54;97294.16;;;1.10;100.00
7614;BME280;3848;42.016;23.098;2023-03-14T06:00:21;97295.06;;;1.12;100.00
7614;BME280;3848;42.016;23.098;2023-03-14T06:02:48;97298.59;;;1.18;100.00
7614;BME280;3848;42.016;23.098;2023-03-14T06:05:15;97274.50;;;0.95;100.00
7614;BME280;3848;42.016;23.098;2023-03-14T06:07:42;97289.38;;;1.17;100.00
7614;BME280;3848;42.016;23.098;2023-03-14T06:10:11;97277.03;;;1.23;100.00
7614;BME280;3848;42.016;23.098;2023-03-14T06:12:37;97282.53;;;1.39;100.00
7614;BME280;3848;42.016;23.098;2023-03-14T06:15:20;97277.03;;;1.50;100.00
7614;BME280;3848;42.016;23.098;2023-03-14T06:17:46;97272.16;;;1.55;100.00
7614;BME280;3848;42.016;23.098;2023-03-14T06:20:14;97276.53;;;1.62;100.00
7614;BME280;3848;42.016;23.098;2023-03-14T06:22:40;97263.47;;;1.72;100.00
7614;BME280;3848;42.016;23.098;2023-03-14T06:25:09;97267.94;;;1.82;100.00
7614;BME280;3848;42.016;23.098;2023-03-14T06:27:36;97267.44;;;1.94;100.00
7614;BME280;3848;42.016;23.098;2023-03-14T06:30:03;97257.41;;;1.94;100.00
7614;BME280;3848;42.016;23.098;2023-03-14T06:32:30;97265.78;;;1.95;100.00
7614;BME280;3848;42.016;23.098;2023-03-14T06:34:57;97238.09;;;1.90;100.00
7614;BME280;3848;42.016;23.098;2023-03-14T06:37:26;97266.44;;;2.19;100.00
7614;BME280;3848;42.016;23.098;2023-03-14T06:39:53;97272.59;;;2.30;100.00
7614;BME280;3848;42.016;23.098;2023-03-14T06:42:22;97172.56;;;1.75;100.00
7614;BME280;3848;42.016;23.098;2023-03-14T06:44:51;97272.31;;;2.51;100.00
7614;BME280;3848;42.016;23.098;2023-03-14T06:47:17;97266.59;;;2.57;100.00
7614;BME280;3848;42.016;23.098;2023-03-14T06:49:44;97095.34;;;1.60;100.00
7614;BME280;3848;42.016;23.098;2023-03-14T06:52:11;97268.88;;;2.82;100.00
7614;BME280;3848;42.016;23.098;2023-03-14T06:54:38;97266.56;;;2.91;100.00
7614;BME280;3848;42.016;23.098;2023-03-14T06:57:05;97266.31;;;3.15;100.00
7614;BME280;3848;42.016;23.098;2023-03-14T06:59:33;97168.41;;;2.76;100.00
7614;BME280;3848;42.016;23.098;2023-03-14T07:02:00;97252.31;;;3.25;100.00
7614;BME280;3848;42.016;23.098;2023-03-14T07:04:27;97248.28;;;3.33;100.00
7614;BME280;3848;42.016;23.098;2023-03-14T07:06:54;97246.00;;;3.42;100.00
7614;BME280;3848;42.016;23.098;2023-03-14T07:09:21;97250.53;;;3.58;100.00
7614;BME280;3848;42.016;23.098;2023-03-14T07:11:48;97243.91;;;3.62;100.00
7614;BME280;3848;42.016;23.098;2023-03-14T07:14:14;97240.69;;;3.69;100.00
7614;BME280;3848;42.016;23.098;2023-03-14T07:16:43;97234.06;;;3.73;100.00
7614;BME280;3848;42.016;23.098;2023-03-14T07:19:10;97230.28;;;3.93;100.00
7614;BME280;3848;42.016;23.098;2023-03-14T07:21:37;97218.75;;;4.03;100.00
7614;BME280;3848;42.016;23.098;2023-03-14T07:24:04;97208.72;;;4.04;100.00
7614;BME280;3848;42.016;23.098;2023-03-14T07:26:30;97210.53;;;4.13;100.00
7614;BME280;3848;42.016;23.098;2023-03-14T07:28:57;97208.06;;;4.14;100.00
7614;BME280;3848;42.016;23.098;2023-03-14T07:31:24;97207.38;;;4.21;100.00
7614;BME280;3848;42.016;23.098;2023-03-14T07:33:52;97190.38;;;4.10;100.00
7614;BME280;3848;42.016;23.098;2023-03-14T07:36:19;97204.03;;;4.22;100.00
7614;BME280;3848;42.016;23.098;2023-03-14T07:38:46;97189.31;;;4.44;100.00
7614;BME280;3848;42.016;23.098;2023-03-14T07:41:13;97190.28;;;4.53;100.00
7614;BME280;3848;42.016;23.098;2023-03-14T07:43:40;97177.78;;;4.58;100.00
7614;BME280;3848;42.016;23.098;2023-03-14T07:46:07;97168.69;;;4.66;100.00
7614;BME280;3848;42.016;23.098;2023-03-14T07:48:34;97161.25;;;4.74;100.00
7614;BME280;3848;42.016;23.098;2023-03-14T07:51:02;97167.28;;;4.83;100.00
7614;BME280;3848;42.016;23.098;2023-03-14T07:53:29;97149.47;;;4.71;100.00
7614;BME280;3848;42.016;23.098;2023-03-14T07:55:56;97170.00;;;4.99;100.00
7614;BME280;3848;42.016;23.098;2023-03-14T07:58:22;97158.41;;;5.07;100.00
7614;BME280;3848;42.016;23.098;2023-03-14T08:00:49;97158.44;;;5.10;100.00
7614;BME280;3848;42.016;23.098;2023-03-14T08:03:23;97168.69;;;5.22;100.00
7614;BME280;3848;42.016;23.098;2023-03-14T08:05:50;97159.53;;;5.30;100.00
7614;BME280;3848;42.016;23.098;2023-03-14T08:08:20;97161.44;;;5.46;100.00
7614;BME280;3848;42.016;23.098;2023-03-14T08:10:47;97157.25;;;5.48;100.00
7614;BME280;3848;42.016;23.098;2023-03-14T08:13:14;97159.81;;;5.51;100.00
7614;BME280;3848;42.016;23.098;2023-03-14T08:15:41;97150.91;;;5.82;100.00
7614;BME280;3848;42.016;23.098;2023-03-14T08:18:08;97136.00;;;5.99;100.00
7614;BME280;3848;42.016;23.098;2023-03-14T08:20:35;97094.88;;;6.05;100.00
7614;BME280;3848;42.016;23.098;2023-03-14T08:23:02;97133.88;;;6.43;100.00
7614;BME280;3848;42.016;23.098;2023-03-14T08:25:33;97130.72;;;6.69;100.00
7614;BME280;3848;42.016;23.098;2023-03-14T08:28:00;97139.16;;;6.71;100.00
7614;BME280;3848;42.016;23.098;2023-03-14T08:30:26;97068.25;;;6.42;100.00
7614;BME280;3848;42.016;23.098;2023-03-14T08:32:56;97127.53;;;6.99;100.00
7614;BME280;3848;42.016;23.098;2023-03-14T08:35:22;97122.59;;;7.20;100.00
7614;BME280;3848;42.016;23.098;2023-03-14T08:37:50;97123.53;;;7.36;100.00
7614;BME280;3848;42.016;23.098;2023-03-14T08:40:18;97098.25;;;7.41;100.00
7614;BME280;3848;42.016;23.098;2023-03-14T08:42:46;97116.06;;;7.73;100.00
7614;BME280;3848;42.016;23.098;2023-03-14T08:45:14;97116.97;;;7.94;100.00
7614;BME280;3848;42.016;23.098;2023-03-14T08:47:42;97107.69;;;8.10;100.00
7614;BME280;3848;42.016;23.098;2023-03-14T08:50:10;97102.69;;;8.38;94.08
7614;BME280;3848;42.016;23.098;2023-03-14T08:52:37;97103.53;;;8.57;99.75
7614;BME280;3848;42.016;23.098;2023-03-14T08:55:06;97095.06;;;8.74;97.44
7614;BME280;3848;42.016;23.098;2023-03-14T08:57:33;97100.09;;;8.96;89.91
7614;BME280;3848;42.016;23.098;2023-03-14T09:00:03;97091.59;;;9.20;90.32
7614;BME280;3848;42.016;23.098;2023-03-14T09:02:34;97089.81;;;9.40;80.24
7614;BME280;3848;42.016;23.098;2023-03-14T09:05:01;97076.19;;;9.58;85.57
7614;BME280;3848;42.016;23.098;2023-03-14T09:07:28;97076.09;;;9.77;78.51
7614;BME280;3848;42.016;23.098;2023-03-14T09:09:54;97056.50;;;9.96;74.53
7614;BME280;3848;42.016;23.098;2023-03-14T09:12:21;97050.50;;;10.11;75.45
7614;BME280;3848;42.016;23.098;2023-03-14T09:14:48;97045.91;;;10.56;72.87
7614;BME280;3848;42.016;23.098;2023-03-14T09:17:16;97040.66;;;10.73;75.77
7614;BME280;3848;42.016;23.098;2023-03-14T09:19:43;97032.72;;;11.02;77.27
7614;BME280;3848;42.016;23.098;2023-03-14T09:22:12;97004.59;;;11.15;75.25
7614;BME280;3848;42.016;23.098;2023-03-14T09:24:40;97015.22;;;11.46;67.42
7614;BME280;3848;42.016;23.098;2023-03-14T09:27:07;96994.50;;;11.71;65.50
7614;BME280;3848;42.016;23.098;2023-03-14T09:30:04;96988.06;;;12.05;62.68
7614;BME280;3848;42.016;23.098;2023-03-14T09:32:49;96978.34;;;12.29;61.06
7614;BME280;3848;42.016;23.098;2023-03-14T09:35:16;96977.13;;;12.49;59.09
7614;BME280;3848;42.016;23.098;2023-03-14T09:37:42;96961.81;;;12.94;61.13
7614;BME280;3848;42.016;23.098;2023-03-14T09:40:12;96953.22;;;13.40;62.12
7614;BME280;3848;42.016;23.098;2023-03-14T09:42:39;96944.75;;;13.75;55.90
7614;BME280;3848;42.016;23.098;2023-03-14T09:45:11;96933.44;;;14.19;52.46
7614;BME280;3848;42.016;23.098;2023-03-14T09:47:39;96924.03;;;14.54;50.94
7614;BME280;3848;42.016;23.098;2023-03-14T09:50:12;96924.59;;;14.65;50.67
7614;BME280;3848;42.016;23.098;2023-03-14T09:52:40;96903.19;;;15.27;50.68
7614;BME280;3848;42.016;23.098;2023-03-14T09:55:12;96915.63;;;15.93;46.72
7614;BME280;3848;42.016;23.098;2023-03-14T09:57:41;96901.03;;;16.20;44.42
7614;BME280;3848;42.016;23.098;2023-03-14T10:00:14;96882.84;;;16.28;43.82
7614;BME280;3848;42.016;23.098;2023-03-14T10:02:45;96884.56;;;16.75;43.28
7614;BME280;3848;42.016;23.098;2023-03-14T10:05:17;96876.66;;;16.82;42.29
7614;BME280;3848;42.016;23.098;2023-03-14T10:07:44;96878.34;;;17.04;42.52
7614;BME280;3848;42.016;23.098;2023-03-14T10:10:15;96873.22;;;17.04;40.57
7614;BME280;3848;42.016;23.098;2023-03-14T10:12:45;96870.19;;;16.95;40.31
7614;BME280;3848;42.016;23.098;2023-03-14T10:15:14;96872.03;;;16.91;40.06
7614;BME280;3848;42.016;23.098;2023-03-14T10:17:47;96863.25;;;17.19;41.38
7614;BME280;3848;42.016;23.098;2023-03-14T10:20:29;96856.81;;;17.52;39.81
7614;BME280;3848;42.016;23.098;2023-03-14T10:23:01;96851.09;;;17.66;39.35
7614;BME280;3848;42.016;23.098;2023-03-14T10:25:30;96841.72;;;17.65;38.56
7614;BME280;3848;42.016;23.098;2023-03-14T10:27:57;96821.88;;;17.26;39.22
7614;BME280;3848;42.016;23.098;2023-03-14T10:30:32;96833.66;;;17.32;39.49
7614;BME280;3848;42.016;23.098;2023-03-14T10:33:08;96829.41;;;17.31;39.88
7614;BME280;3848;42.016;23.098;2023-03-14T10:35:37;96807.53;;;17.21;39.07
7614;BME280;3848;42.016;23.098;2023-03-14T10:38:04;96815.03;;;17.47;38.00
7614;BME280;3848;42.016;23.098;2023-03-14T10:40:32;96750.84;;;17.25;39.96
7614;BME280;3848;42.016;23.098;2023-03-14T10:43:03;96791.97;;;17.88;38.20
7614;BME280;3848;42.016;23.098;2023-03-14T10:45:34;96788.09;;;17.98;37.70
7614;BME280;3848;42.016;23.098;2023-03-14T10:48:18;96788.84;;;17.59;37.81
7614;BME280;3848;42.016;23.098;2023-03-14T10:50:54;96743.19;;;17.03;39.15
7614;BME280;3848;42.016;23.098;2023-03-14T10:53:21;96775.66;;;17.04;38.61
7614;BME280;3848;42.016;23.098;2023-03-14T10:55:49;96766.13;;;17.08;39.30
7614;BME280;3848;42.016;23.098;2023-03-14T10:58:19;96761.44;;;17.18;39.38
7614;BME280;3848;42.016;23.098;2023-03-14T11:00:50;96746.47;;;17.49;38.59
7614;BME280;3848;42.016;23.098;2023-03-14T11:03:19;96738.03;;;17.46;38.98
7614;BME280;3848;42.016;23.098;2023-03-14T11:05:51;96733.03;;;17.43;38.60
7614;BME280;3848;42.016;23.098;2023-03-14T11:08:23;96734.75;;;17.42;39.16
7614;BME280;3848;42.016;23.098;2023-03-14T11:10:54;96733.34;;;17.35;37.89
7614;BME280;3848;42.016;23.098;2023-03-14T11:13:24;96721.28;;;17.17;36.10
7614;BME280;3848;42.016;23.098;2023-03-14T11:16:03;96714.97;;;17.24;37.35
7614;BME280;3848;42.016;23.098;2023-03-14T11:21:52;96657.41;;;17.29;36.98
7614;BME280;3848;42.016;23.098;2023-03-14T11:24:46;96688.31;;;17.67;35.91
7614;BME280;3848;42.016;23.098;2023-03-14T11:27:18;96677.53;;;17.79;36.15
7614;BME280;3848;42.016;23.098;2023-03-14T11:29:54;96674.34;;;17.54;35.99
7614;BME280;3848;42.016;23.098;2023-03-14T11:32:28;96672.34;;;17.40;36.10
7614;BME280;3848;42.016;23.098;2023-03-14T11:34:59;96668.81;;;17.43;36.51
7614;BME280;3848;42.016;23.098;2023-03-14T11:37:33;96659.69;;;17.76;36.20
7614;BME280;3848;42.016;23.098;2023-03-14T11:40:05;96635.72;;;17.94;36.17
7614;BME280;3848;42.016;23.098;2023-03-14T11:42:35;96639.81;;;18.36;36.31
7614;BME280;3848;42.016;23.098;2023-03-14T11:45:03;96640.63;;;18.73;37.50
7614;BME280;3848;42.016;23.098;2023-03-14T11:47:34;96633.75;;;18.73;35.44
7614;BME280;3848;42.016;23.098;2023-03-14T11:50:09;96629.16;;;18.80;35.36
7614;BME280;3848;42.016;23.098;2023-03-14T11:52:47;96621.19;;;18.84;34.97
7614;BME280;3848;42.016;23.098;2023-03-14T11:55:19;96562.91;;;18.66;35.38
7614;BME280;3848;42.016;23.098;2023-03-14T11:57:49;96605.34;;;19.27;36.11
7614;BME280;3848;42.016;23.098;2023-03-14T12:00:20;96609.31;;;19.49;35.32
7614;BME280;3848;42.016;23.098;2023-03-14T12:02:51;96594.31;;;19.73;34.40
7614;BME280;3848;42.016;23.098;2023-03-14T12:05:34;96592.50;;;19.75;34.09
7614;BME280;3848;42.016;23.098;2023-03-14T12:11:03;96570.72;;;19.65;34.97
7614;BME280;3848;42.016;23.098;2023-03-14T12:13:33;96570.28;;;19.73;35.06
7614;BME280;3848;42.016;23.098;2023-03-14T12:16:04;96560.31;;;19.67;34.18
7614;BME280;3848;42.016;23.098;2023-03-14T12:18:33;96552.50;;;19.68;34.28
7614;BME280;3848;42.016;23.098;2023-03-14T12:21:05;96545.69;;;19.67;33.97
7614;BME280;3848;42.016;23.098;2023-03-14T12:23:41;96544.44;;;19.59;34.06
7614;BME280;3848;42.016;23.098;2023-03-14T12:26:17;96550.44;;;19.59;34.10
7614;BME280;3848;42.016;23.098;2023-03-14T12:28:49;96543.59;;;19.58;34.29
7614;BME280;3848;42.016;23.098;2023-03-14T12:31:36;96549.88;;;19.53;33.58
7614;BME280;3848;42.016;23.098;2023-03-14T12:34:04;96520.41;;;19.25;32.97
7614;BME280;3848;42.016;23.098;2023-03-14T12:37:14;96484.69;;;19.19;33.23
7614;BME280;3848;42.016;23.098;2023-03-14T12:39:56;96530.84;;;19.55;34.03
7614;BME280;3848;42.016;23.098;2023-03-14T12:42:38;96530.13;;;19.85;34.04
7614;BME280;3848;42.016;23.098;2023-03-14T12:45:28;96522.69;;;20.10;32.83
7614;BME280;3848;42.016;23.098;2023-03-14T12:48:17;96516.28;;;20.63;31.79
7614;BME280;3848;42.016;23.098;2023-03-14T12:50:54;96509.88;;;20.54;32.18
7614;BME280;3848;42.016;23.098;2023-03-14T12:59:30;96503.91;;;20.38;32.56
7614;BME280;3848;42.016;23.098;2023-03-14T13:02:01;96491.59;;;20.87;32.50
7614;BME280;3848;42.016;23.098;2023-03-14T13:04:33;96478.03;;;20.69;33.04
7614;BME280;3848;42.016;23.098;2023-03-14T13:07:01;96467.41;;;20.30;32.79
7614;BME280;3848;42.016;23.098;2023-03-14T13:09:53;96484.44;;;20.32;33.35
7614;BME280;3848;42.016;23.098;2023-03-14T13:12:29;96472.38;;;20.33;32.97
7614;BME280;3848;42.016;23.098;2023-03-14T13:14:59;96461.75;;;20.23;32.95
7614;BME280;3848;42.016;23.098;2023-03-14T13:17:33;96458.19;;;20.26;33.47
7614;BME280;3848;42.016;23.098;2023-03-14T13:20:03;96454.31;;;20.33;33.48
7614;BME280;3848;42.016;23.098;2023-03-14T13:22:34;96457.34;;;20.41;33.07
7614;BME280;3848;42.016;23.098;2023-03-14T13:25:05;96448.38;;;20.17;32.68
7614;BME280;3848;42.016;23.098;2023-03-14T13:27:35;96443.19;;;20.17;33.08
7614;BME280;3848;42.016;23.098;2023-03-14T13:30:15;96438.22;;;20.14;33.38
7614;BME280;3848;42.016;23.098;2023-03-14T13:32:45;96427.19;;;19.96;33.12
7614;BME280;3848;42.016;23.098;2023-03-14T13:35:18;96414.06;;;20.00;33.32
7614;BME280;3848;42.016;23.098;2023-03-14T13:37:45;96414.38;;;19.80;33.90
7614;BME280;3848;42.016;23.098;2023-03-14T13:40:23;96417.44;;;19.71;33.73